createdAt,value
2018-10-17T00:00:51.661Z,98284.70
2018-10-17T00:01:54.879Z,98287.21
2018-10-17T00:02:57.739Z,98282.09
2018-10-17T00:04:00.824Z,98278.88
2018-10-17T00:05:03.983Z,98281.50
2018-10-17T00:06:07.861Z,98281.62
2018-10-17T00:07:11.196Z,98276.50
2018-10-17T00:08:14.554Z,98281.16
2018-10-17T00:09:17.215Z,98283.22
2018-10-17T00:10:20.265Z,98282.41
2018-10-17T00:11:23.026Z,98281.04
2018-10-17T00:13:27.555Z,98278.66
2018-10-17T00:14:30.718Z,98279.31
2018-10-17T00:15:34.109Z,98285.36
2018-10-17T00:16:36.965Z,98288.53
2018-10-17T00:17:39.710Z,98286.93
2018-10-17T00:18:43.547Z,98289.17
2018-10-17T00:19:47.943Z,98284.23
2018-10-17T00:20:50.939Z,98286.87
2018-10-17T00:21:54.690Z,98285.58
2018-10-17T00:22:59.685Z,98284.66
2018-10-17T00:24:02.806Z,98284.31
2018-10-17T00:25:05.672Z,98281.69
2018-10-17T00:26:08.673Z,98279.53
2018-10-17T00:27:11.624Z,98292.48
2018-10-17T00:28:14.457Z,98289.98
2018-10-17T00:29:17.882Z,98286.78
2018-10-17T00:30:22.060Z,98286.20
2018-10-17T00:31:25.146Z,98291.66
2018-10-17T00:32:28.096Z,98286.74
2018-10-17T00:33:31.505Z,98286.09
2018-10-17T00:34:34.398Z,98283.94
2018-10-17T00:35:38.212Z,98290.57
2018-10-17T00:36:40.850Z,98279.84
2018-10-17T00:37:43.964Z,98279.30
2018-10-17T00:38:46.957Z,98278.23
2018-10-17T00:39:50.089Z,98281.18
2018-10-17T00:40:53.373Z,98276.70
2018-10-17T00:41:56.017Z,98277.70
2018-10-17T00:42:58.676Z,98278.86
2018-10-17T00:44:01.700Z,98278.14
2018-10-17T00:45:05.829Z,98279.45
2018-10-17T00:46:09.158Z,98285.11
2018-10-17T00:47:12.894Z,98282.03
2018-10-17T00:48:15.645Z,98285.05
2018-10-17T00:49:18.329Z,98288.47
2018-10-17T00:50:21.290Z,98285.84
2018-10-17T00:51:24.197Z,98282.50
2018-10-17T00:52:29.274Z,98282.41
2018-10-17T00:53:32.277Z,98284.36
2018-10-17T00:54:35.640Z,98283.06
2018-10-17T00:55:38.424Z,98286.47
2018-10-17T00:56:41.985Z,98280.83
2018-10-17T00:57:44.907Z,98279.97
2018-10-17T00:58:48.781Z,98284.34
2018-10-17T00:59:51.428Z,98280.97
2018-10-17T01:00:54.379Z,98277.28
2018-10-17T01:01:57.659Z,98281.86
2018-10-17T01:03:00.505Z,98278.48
2018-10-17T01:04:04.507Z,98279.88
2018-10-17T01:05:08.844Z,98278.33
2018-10-17T01:06:11.548Z,98280.06
2018-10-17T01:07:14.248Z,98272.86
2018-10-17T01:08:18.772Z,98274.59
2018-10-17T01:09:21.841Z,98281.19
2018-10-17T01:10:25.040Z,98275.67
2018-10-17T01:11:28.076Z,98271.91
2018-10-17T01:12:31.565Z,98278.98
2018-10-17T01:13:34.320Z,98274.41
2018-10-17T01:14:37.042Z,98273.70
2018-10-17T01:15:39.722Z,98272.50
2018-10-17T01:16:42.405Z,98278.07
2018-10-17T01:17:45.426Z,98270.59
2018-10-17T01:18:49.398Z,98271.72
2018-10-17T01:19:52.081Z,98275.34
2018-10-17T01:20:55.024Z,98275.27
2018-10-17T01:21:57.671Z,98275.56
2018-10-17T01:23:01.619Z,98273.89
2018-10-17T01:24:05.349Z,98275.94
2018-10-17T01:25:10.217Z,98274.54
2018-10-17T01:26:13.644Z,98273.52
2018-10-17T01:27:16.315Z,98270.55
2018-10-17T01:28:19.041Z,98269.63
2018-10-17T01:29:21.703Z,98268.02
2018-10-17T01:30:25.324Z,98268.84
2018-10-17T01:31:28.427Z,98268.51
2018-10-17T01:32:31.274Z,98271.99
2018-10-17T01:33:34.201Z,98264.78
2018-10-17T01:34:37.859Z,98267.52
2018-10-17T01:35:40.752Z,98264.55
2018-10-17T01:36:46.688Z,98261.95
2018-10-17T01:37:49.601Z,98259.33
2018-10-17T01:38:52.893Z,98263.56
2018-10-17T01:39:55.576Z,98266.88
2018-10-17T01:40:58.917Z,98261.61
2018-10-17T01:42:01.884Z,98257.66
2018-10-17T01:43:05.784Z,98260.76
2018-10-17T01:44:08.969Z,98261.55
2018-10-17T01:45:12.096Z,98254.44
2018-10-17T01:46:15.235Z,98253.18
2018-10-17T01:47:17.932Z,98252.09
2018-10-17T01:48:20.603Z,98254.03
2018-10-17T01:49:24.830Z,98248.47
2018-10-17T01:50:27.802Z,98251.64
2018-10-17T01:51:30.481Z,98248.39
2018-10-17T01:52:33.144Z,98246.76
2018-10-17T01:53:35.854Z,98246.86
2018-10-17T01:54:38.515Z,98243.83
2018-10-17T01:55:42.020Z,98246.55
2018-10-17T01:56:44.684Z,98245.33
2018-10-17T01:57:47.340Z,98245.59
2018-10-17T01:58:49.985Z,98243.62
2018-10-17T01:59:53.450Z,98238.73
2018-10-17T02:00:56.197Z,98243.16
2018-10-17T02:01:59.244Z,98243.70
2018-10-17T02:03:02.223Z,98242.68
2018-10-17T02:04:04.856Z,98244.45
2018-10-17T02:05:07.976Z,98236.60
2018-10-17T02:06:10.628Z,98241.48
2018-10-17T02:07:13.315Z,98243.47
2018-10-17T02:08:16.453Z,98240.59
2018-10-17T02:09:20.284Z,98238.41
2018-10-17T02:10:22.942Z,98239.92
2018-10-17T02:11:25.861Z,98234.46
2018-10-17T02:12:28.531Z,98243.47
2018-10-17T02:13:33.318Z,98240.11
2018-10-17T02:14:36.393Z,98241.19
2018-10-17T02:15:39.106Z,98241.82
2018-10-17T02:16:41.782Z,98244.48
2018-10-17T02:17:44.424Z,98237.97
2018-10-17T02:18:47.100Z,98237.09
2018-10-17T02:19:49.773Z,98240.69
2018-10-17T02:20:52.800Z,98238.36
2018-10-17T02:21:55.488Z,98237.67
2018-10-17T02:22:58.134Z,98238.03
2018-10-17T02:24:00.825Z,98239.31
2018-10-17T02:25:03.543Z,98240.73
2018-10-17T02:26:06.190Z,98236.21
2018-10-17T02:27:09.199Z,98237.23
2018-10-17T02:28:11.882Z,98234.25
2018-10-17T02:29:14.604Z,98242.09
2018-10-17T02:30:17.246Z,98234.88
2018-10-17T02:31:20.077Z,98244.12
2018-10-17T02:32:22.632Z,98238.06
2018-10-17T02:33:25.622Z,98232.70
2018-10-17T02:34:28.300Z,98238.85
2018-10-17T02:35:30.940Z,98233.67
2018-10-17T02:36:33.618Z,98238.45
2018-10-17T02:37:36.270Z,98237.51
2018-10-17T02:38:38.932Z,98238.30
2018-10-17T02:39:42.138Z,98241.45
2018-10-17T02:40:44.782Z,98237.22
2018-10-17T02:41:47.470Z,98240.94
2018-10-17T02:42:50.150Z,98241.89
2018-10-17T02:43:52.851Z,98231.86
2018-10-17T02:44:55.545Z,98237.80
2018-10-17T02:45:58.676Z,98235.69
2018-10-17T02:47:01.417Z,98234.32
2018-10-17T02:48:04.118Z,98232.86
2018-10-17T02:49:06.871Z,98234.77
2018-10-17T02:50:10.602Z,98235.63
2018-10-17T02:51:13.294Z,98239.16
2018-10-17T02:52:16.381Z,98233.53
2018-10-17T02:53:19.233Z,98237.33
2018-10-17T02:54:21.877Z,98235.43
2018-10-17T02:55:24.585Z,98238.37
2018-10-17T02:56:27.278Z,98235.98
2018-10-17T02:57:29.952Z,98237.88
2018-10-17T02:58:32.966Z,98233.55
2018-10-17T02:59:35.803Z,98238.22
2018-10-17T03:00:38.486Z,98238.31
2018-10-17T03:01:41.248Z,98235.55
2018-10-17T03:02:43.943Z,98240.34
2018-10-17T03:03:46.634Z,98226.53
2018-10-17T03:04:49.799Z,98238.43
2018-10-17T03:05:52.503Z,98239.66
2018-10-17T03:06:55.185Z,98233.29
2018-10-17T03:07:57.920Z,98235.52
2018-10-17T03:09:00.631Z,98231.23
2018-10-17T03:10:03.338Z,98235.86
2018-10-17T03:11:06.474Z,98231.05
2018-10-17T03:12:09.154Z,98235.69
2018-10-17T03:13:11.835Z,98234.39
2018-10-17T03:14:14.500Z,98230.13
2018-10-17T03:15:17.129Z,98237.73
2018-10-17T03:16:19.786Z,98231.52
2018-10-17T03:17:22.834Z,98237.46
2018-10-17T03:18:25.489Z,98240.66
2018-10-17T03:19:28.207Z,98239.27
2018-10-17T03:20:30.889Z,98237.49
2018-10-17T03:21:33.563Z,98236.98
2018-10-17T03:22:36.262Z,98239.50
2018-10-17T03:23:40.335Z,98234.61
2018-10-17T03:24:43.021Z,98233.40
2018-10-17T03:25:45.675Z,98237.61
2018-10-17T03:26:48.329Z,98226.07
2018-10-17T03:27:51.078Z,98234.95
2018-10-17T03:28:53.725Z,98227.02
2018-10-17T03:29:56.915Z,98233.64
2018-10-17T03:30:59.572Z,98234.21
2018-10-17T03:32:02.305Z,98229.69
2018-10-17T03:33:04.965Z,98231.53
2018-10-17T03:34:07.683Z,98234.34
2018-10-17T03:35:10.518Z,98229.64
2018-10-17T03:36:13.542Z,98235.34
2018-10-17T03:37:16.269Z,98237.43
2018-10-17T03:38:19.061Z,98240.81
2018-10-17T03:39:21.742Z,98238.66
2018-10-17T03:40:24.419Z,98242.17
2018-10-17T03:41:27.078Z,98239.77
2018-10-17T03:42:30.069Z,98238.86
2018-10-17T03:43:33.562Z,98240.86
2018-10-17T03:44:36.219Z,98236.29
2018-10-17T03:45:38.898Z,98241.91
2018-10-17T03:46:41.581Z,98241.13
2018-10-17T03:47:44.233Z,98234.77
2018-10-17T03:48:47.201Z,98237.23
2018-10-17T03:49:49.934Z,98235.07
2018-10-17T03:50:52.639Z,98232.78
2018-10-17T03:51:55.284Z,98236.60
2018-10-17T03:52:58.007Z,98234.28
2018-10-17T03:54:00.688Z,98237.64
2018-10-17T03:55:03.715Z,98240.82
2018-10-17T03:56:06.417Z,98239.52
2018-10-17T03:57:09.119Z,98237.73
2018-10-17T03:58:11.852Z,98235.00
2018-10-17T03:59:14.612Z,98235.67
2018-10-17T04:00:17.309Z,98238.80
2018-10-17T04:01:20.388Z,98238.70
2018-10-17T04:02:23.034Z,98241.00
2018-10-17T04:03:25.698Z,98237.70
2018-10-17T04:04:28.375Z,98240.34
2018-10-17T04:05:31.056Z,98239.03
2018-10-17T04:06:33.738Z,98241.73
2018-10-17T04:07:36.727Z,98248.34
2018-10-17T04:08:39.386Z,98250.58
2018-10-17T04:09:42.050Z,98254.67
2018-10-17T04:10:44.716Z,98248.98
2018-10-17T04:11:47.408Z,98248.27
2018-10-17T04:12:50.074Z,98248.89
2018-10-17T04:13:53.155Z,98243.29
2018-10-17T04:14:55.832Z,98249.23
2018-10-17T04:15:58.503Z,98245.60
2018-10-17T04:17:01.162Z,98248.81
2018-10-17T04:18:03.857Z,98244.97
2018-10-17T04:19:06.563Z,98245.12
2018-10-17T04:20:09.528Z,98237.42
2018-10-17T04:21:12.219Z,98243.45
2018-10-17T04:22:14.880Z,98237.38
2018-10-17T04:23:17.637Z,98243.13
2018-10-17T04:24:20.249Z,98248.90
2018-10-17T04:25:24.535Z,98252.72
2018-10-17T04:26:28.590Z,98237.64
2018-10-17T04:27:32.057Z,98242.67
2018-10-17T04:28:34.720Z,98244.19
2018-10-17T04:29:38.049Z,98244.19
2018-10-17T04:30:40.743Z,98245.23
2018-10-17T04:31:43.421Z,98240.03
2018-10-17T04:32:46.533Z,98245.98
2018-10-17T04:33:49.200Z,98248.22
2018-10-17T04:34:51.850Z,98248.13
2018-10-17T04:35:54.571Z,98250.41
2018-10-17T04:36:57.226Z,98248.72
2018-10-17T04:38:00.060Z,98252.96
2018-10-17T04:39:03.034Z,98252.39
2018-10-17T04:40:05.732Z,98250.00
2018-10-17T04:41:08.738Z,98253.83
2018-10-17T04:42:11.374Z,98253.05
2018-10-17T04:43:14.107Z,98261.05
2018-10-17T04:44:16.752Z,98251.89
2018-10-17T04:45:20.241Z,98253.41
2018-10-17T04:46:22.886Z,98248.22
2018-10-17T04:47:25.616Z,98255.70
2018-10-17T04:48:28.347Z,98257.52
2018-10-17T04:49:31.006Z,98252.65
2018-10-17T04:50:33.653Z,98254.42
2018-10-17T04:51:36.884Z,98248.81
2018-10-17T04:52:39.870Z,98251.62
2018-10-17T04:53:42.526Z,98249.93
2018-10-17T04:54:45.195Z,98253.55
2018-10-17T04:55:47.872Z,98256.33
2018-10-17T04:56:50.872Z,98254.33
2018-10-17T04:57:53.574Z,98255.29
2018-10-17T04:58:56.410Z,98261.39
2018-10-17T04:59:59.062Z,98256.44
2018-10-17T05:01:02.461Z,98253.22
2018-10-17T05:02:05.053Z,98251.38
2018-10-17T05:03:08.576Z,98259.16
2018-10-17T05:04:11.264Z,98256.91
2018-10-17T05:05:14.219Z,98260.52
2018-10-17T05:06:23.221Z,98262.02
2018-10-17T05:07:27.635Z,98261.48
2018-10-17T05:08:30.323Z,98260.36
2018-10-17T05:09:33.278Z,98264.48
2018-10-17T05:10:36.261Z,98266.51
2018-10-17T05:11:39.346Z,98260.90
2018-10-17T05:12:42.005Z,98257.80
2018-10-17T05:13:44.713Z,98260.66
2018-10-17T05:14:47.501Z,98266.18
2018-10-17T05:15:50.472Z,98260.52
2018-10-17T05:16:53.139Z,98260.43
2018-10-17T05:17:55.862Z,98257.05
2018-10-17T05:18:58.580Z,98265.97
2018-10-17T05:20:02.730Z,98256.52
2018-10-17T05:21:05.524Z,98255.45
2018-10-17T05:22:08.865Z,98250.01
2018-10-17T05:23:11.633Z,98252.52
2018-10-17T05:24:14.272Z,98250.50
2018-10-17T05:25:17.008Z,98252.97
2018-10-17T05:26:19.772Z,98249.88
2018-10-17T05:27:22.456Z,98246.58
2018-10-17T05:28:25.992Z,98248.72
2018-10-17T05:29:28.736Z,98250.98
2018-10-17T05:44:00.128Z,98259.00
2018-10-17T05:45:02.850Z,98260.69
2018-10-17T05:46:05.541Z,98264.35
2018-10-17T05:47:08.495Z,98259.62
2018-10-17T05:48:11.329Z,98266.42
2018-10-17T05:49:14.755Z,98265.89
2018-10-17T05:50:17.441Z,98272.69
2018-10-17T05:51:20.248Z,98265.89
2018-10-17T05:52:23.114Z,98265.86
2018-10-17T05:53:26.381Z,98266.75
2018-10-17T05:54:29.133Z,98265.39
2018-10-17T05:55:32.130Z,98267.86
2018-10-17T05:56:34.851Z,98273.86
2018-10-17T05:57:37.615Z,98272.05
2018-10-17T05:58:40.389Z,98271.34
2018-10-17T05:59:43.952Z,98270.98
2018-10-17T06:00:46.618Z,98272.11
2018-10-17T06:01:51.358Z,98273.64
2018-10-17T06:02:54.018Z,98273.55
2018-10-17T06:03:57.496Z,98269.22
2018-10-17T06:05:00.559Z,98271.08
2018-10-17T06:06:03.346Z,98274.14
2018-10-17T06:07:06.762Z,98275.09
2018-10-17T06:08:09.823Z,98277.31
2018-10-17T06:09:13.250Z,98272.98
2018-10-17T06:10:16.005Z,98279.47
2018-10-17T06:11:18.649Z,98277.23
2018-10-17T06:12:21.321Z,98272.36
2018-10-17T06:13:23.988Z,98271.09
2018-10-17T06:14:27.184Z,98276.04
2018-10-17T06:15:29.952Z,98277.73
2018-10-17T06:16:32.667Z,98281.07
2018-10-17T06:17:36.962Z,98273.54
2018-10-17T06:18:39.941Z,98275.66
2018-10-17T06:19:42.678Z,98270.47
2018-10-17T06:20:45.776Z,98273.96
2018-10-17T06:21:48.452Z,98269.14
2018-10-17T06:22:51.173Z,98271.44
2018-10-17T06:23:57.116Z,98272.67
2018-10-17T06:25:00.852Z,98277.11
2018-10-17T06:26:03.846Z,98274.75
2018-10-17T06:27:10.641Z,98270.34
2018-10-17T06:28:13.572Z,98281.00
2018-10-17T06:29:16.877Z,98276.23
2018-10-17T06:30:19.586Z,98276.30
2018-10-17T06:31:22.383Z,98273.36
2018-10-17T06:32:26.039Z,98277.02
2018-10-17T06:33:34.704Z,98279.67
2018-10-17T06:34:37.456Z,98279.30
2018-10-17T06:35:40.745Z,98273.05
2018-10-17T06:36:43.450Z,98277.78
2018-10-17T06:37:46.614Z,98277.35
2018-10-17T06:38:49.307Z,98278.48
2018-10-17T06:39:52.624Z,98277.09
2018-10-17T06:40:55.324Z,98277.05
2018-10-17T06:41:58.037Z,98275.34
2018-10-17T06:43:03.734Z,98278.41
2018-10-17T06:44:06.985Z,98278.63
2018-10-17T06:45:09.680Z,98275.25
2018-10-17T06:46:12.898Z,98271.84
2018-10-17T06:47:16.393Z,98275.75
2018-10-17T06:48:19.033Z,98276.56
2018-10-17T06:49:21.726Z,98270.67
2018-10-17T06:50:24.392Z,98275.64
2018-10-17T06:51:27.269Z,98280.95
2018-10-17T06:52:30.459Z,98277.78
2018-10-17T06:53:33.198Z,98279.09
2018-10-17T06:54:37.678Z,98273.65
2018-10-17T06:55:41.865Z,98278.56
2018-10-17T06:56:46.237Z,98273.70
2018-10-17T06:57:50.698Z,98277.39
2018-10-17T06:58:54.226Z,98276.43
2018-10-17T06:59:58.638Z,98278.51
2018-10-17T07:01:04.767Z,98281.11
2018-10-17T07:02:08.986Z,98274.83
2018-10-17T07:03:12.739Z,98278.27
2018-10-17T07:04:18.784Z,98281.03
2018-10-17T07:05:24.602Z,98279.50
2018-10-17T07:06:29.555Z,98284.52
2018-10-17T07:07:32.683Z,98282.90
2018-10-17T07:08:36.358Z,98281.16
2018-10-17T07:09:39.069Z,98280.53
2018-10-17T07:10:42.693Z,98283.77
2018-10-17T07:11:46.217Z,98283.92
2018-10-17T07:12:53.612Z,98278.08
2018-10-17T07:13:57.833Z,98284.03
2018-10-17T07:15:00.537Z,98281.06
2018-10-17T07:16:03.394Z,98282.63
2018-10-17T07:17:06.164Z,98286.47
2018-10-17T07:18:10.680Z,98285.58
2018-10-17T07:19:14.481Z,98280.51
2018-10-17T07:20:17.517Z,98284.23
2018-10-17T07:21:20.415Z,98279.96
2018-10-17T07:22:24.583Z,98284.55
2018-10-17T07:23:29.448Z,98280.59
2018-10-17T07:24:33.305Z,98278.89
2018-10-17T07:25:36.266Z,98276.91
2018-10-17T07:26:39.122Z,98282.53
2018-10-17T07:27:42.356Z,98283.92
2018-10-17T07:28:45.241Z,98287.09
2018-10-17T07:29:48.115Z,98283.45
2018-10-17T07:30:56.684Z,98284.36
2018-10-17T07:31:59.595Z,98282.67
2018-10-17T07:33:02.464Z,98281.72
2018-10-17T07:34:05.928Z,98282.84
2018-10-17T07:35:09.365Z,98284.08
2018-10-17T07:36:13.460Z,98283.40
2018-10-17T07:37:21.766Z,98277.66
2018-10-17T07:38:26.651Z,98278.05
2018-10-17T07:39:29.722Z,98278.94
2018-10-17T07:40:33.208Z,98277.80
2018-10-17T07:42:46.969Z,98285.45
2018-10-17T07:43:50.383Z,98288.53
2018-10-17T07:44:55.355Z,98287.89
2018-10-17T07:45:59.576Z,98288.39
2018-10-17T07:47:02.612Z,98285.48
2018-10-17T07:48:05.567Z,98291.59
2018-10-17T07:49:08.437Z,98283.31
2018-10-17T07:50:12.204Z,98288.14
2018-10-17T07:51:15.135Z,98293.34
2018-10-17T07:52:17.855Z,98292.05
2018-10-17T07:53:20.984Z,98293.22
2018-10-17T07:54:25.666Z,98285.80
2018-10-17T07:55:29.052Z,98287.05
2018-10-17T07:56:32.167Z,98285.73
2018-10-17T07:57:35.017Z,98279.09
2018-10-17T07:58:38.105Z,98278.67
2018-10-17T07:59:41.869Z,98285.77
2018-10-17T08:00:44.975Z,98285.78
2018-10-17T08:01:47.934Z,98277.84
2018-10-17T08:03:02.560Z,98282.05
2018-10-17T08:04:06.399Z,98285.09
2018-10-17T08:05:15.601Z,98284.58
2018-10-17T08:06:18.430Z,98280.79
2018-10-17T08:07:21.259Z,98286.89
2018-10-17T08:08:24.561Z,98279.40
2018-10-17T08:09:27.853Z,98284.73
2018-10-17T08:10:30.751Z,98288.81
2018-10-17T08:11:35.615Z,98283.66
2018-10-17T08:12:38.368Z,98283.39
2018-10-17T08:13:41.233Z,98285.33
2018-10-17T08:14:44.284Z,98285.78
2018-10-17T08:15:47.409Z,98282.11
2018-10-17T08:16:50.160Z,98284.39
2018-10-17T08:17:53.680Z,98287.23
2018-10-17T08:18:56.561Z,98280.66
2018-10-17T08:19:59.573Z,98280.18
2018-10-17T08:21:02.915Z,98285.91
2018-10-17T08:22:06.157Z,98279.63
2018-10-17T08:23:09.365Z,98276.58
2018-10-17T08:24:12.155Z,98281.59
2018-10-17T08:25:14.892Z,98277.83
2018-10-17T08:26:17.757Z,98277.41
2018-10-17T08:27:20.510Z,98284.39
2018-10-17T08:28:23.691Z,98281.03
2018-10-17T08:29:26.675Z,98279.41
2018-10-17T08:30:29.349Z,98285.46
2018-10-17T08:31:32.036Z,98281.55
2018-10-17T08:32:34.709Z,98276.92
2018-10-17T08:33:37.393Z,98281.58
2018-10-17T08:34:41.759Z,98283.34
2018-10-17T08:35:47.534Z,98275.89
2018-10-17T08:36:52.933Z,98275.92
2018-10-17T08:37:57.684Z,98281.98
2018-10-17T08:39:01.220Z,98267.84
2018-10-17T08:40:04.501Z,98276.91
2018-10-17T08:41:12.859Z,98271.27
2018-10-17T08:42:17.502Z,98272.58
2018-10-17T08:43:24.315Z,98263.59
2018-10-17T08:44:29.625Z,98265.48
2018-10-17T08:45:36.263Z,98266.43
2018-10-17T08:46:42.206Z,98267.62
2018-10-17T08:47:49.603Z,98269.06
2018-10-17T08:48:53.663Z,98270.12
2018-10-17T08:49:57.347Z,98263.09
2018-10-17T08:51:02.850Z,98266.27
2018-10-17T08:52:11.130Z,98275.23
2018-10-17T08:53:22.714Z,98267.48
2018-10-17T08:54:28.025Z,98267.56
2018-10-17T08:55:31.535Z,98264.41
2018-10-17T08:56:35.273Z,98262.64
2018-10-17T08:57:47.272Z,98260.83
2018-10-17T08:58:55.023Z,98263.03
2018-10-17T09:00:01.798Z,98264.69
2018-10-17T09:01:07.428Z,98267.24
2018-10-17T09:02:10.261Z,98265.12
2018-10-17T09:03:15.435Z,98263.55
2018-10-17T09:04:21.136Z,98264.41
2018-10-17T09:05:32.116Z,98262.63
2018-10-17T09:06:35.509Z,98262.63
2018-10-17T09:07:40.637Z,98269.73
2018-10-17T09:08:43.429Z,98271.12
2018-10-17T09:09:46.800Z,98274.39
2018-10-17T09:10:49.594Z,98268.84
2018-10-17T09:11:52.712Z,98267.51
2018-10-17T09:12:59.537Z,98265.80
2018-10-17T09:14:03.784Z,98267.94
2018-10-17T09:15:06.572Z,98263.13
2018-10-17T09:16:09.265Z,98267.10
2018-10-17T09:17:13.927Z,98270.70
2018-10-17T09:18:17.735Z,98269.94
2018-10-17T09:19:21.482Z,98270.28
2018-10-17T09:20:24.168Z,98269.81
2018-10-17T09:21:27.073Z,98275.72
2018-10-17T09:22:29.561Z,98271.55
2018-10-17T09:23:32.356Z,98272.08
2018-10-17T09:24:35.618Z,98275.69
2018-10-17T09:25:38.460Z,98277.02
2018-10-17T09:26:41.499Z,98278.60
2018-10-17T09:27:44.225Z,98273.80
2018-10-17T09:28:47.797Z,98277.33
2018-10-17T09:29:51.730Z,98283.15
2018-10-17T09:30:57.921Z,98279.39
2018-10-17T09:32:00.809Z,98281.10
2018-10-17T09:33:03.752Z,98279.72
2018-10-17T09:34:06.574Z,98275.16
2018-10-17T09:35:10.220Z,98279.50
2018-10-17T09:36:16.215Z,98283.06
2018-10-17T09:37:21.452Z,98274.58
2018-10-17T09:38:24.286Z,98280.03
2018-10-17T09:39:27.283Z,98271.60
2018-10-17T09:40:30.594Z,98269.87
2018-10-17T09:41:33.259Z,98273.19
2018-10-17T09:42:36.073Z,98271.59
2018-10-17T09:43:39.336Z,98270.42
2018-10-17T09:44:43.504Z,98270.45
2018-10-17T09:45:46.597Z,98270.67
2018-10-17T09:46:49.523Z,98267.97
2018-10-17T09:47:53.202Z,98266.11
2018-10-17T09:48:55.989Z,98266.91
2018-10-17T09:49:59.096Z,98272.06
2018-10-17T09:51:02.231Z,98271.78
2018-10-17T09:52:04.987Z,98269.50
2018-10-17T09:53:07.825Z,98278.60
2018-10-17T09:54:11.269Z,98273.95
2018-10-17T09:55:16.539Z,98272.23
2018-10-17T09:56:22.792Z,98274.72
2018-10-17T09:57:26.319Z,98271.42
2018-10-17T09:58:29.253Z,98268.64
2018-10-17T09:59:36.555Z,98274.17
2018-10-17T10:02:47.765Z,98271.95
2018-10-17T10:03:58.473Z,98269.17
2018-10-17T10:05:02.554Z,98268.39
2018-10-17T10:06:07.903Z,98265.69
2018-10-17T10:07:14.397Z,98263.33
2018-10-17T10:08:22.308Z,98263.61
2018-10-17T10:09:27.215Z,98264.97
2018-10-17T10:10:31.900Z,98256.25
2018-10-17T10:11:38.547Z,98255.77
2018-10-17T10:12:43.114Z,98258.22
2018-10-17T10:13:47.787Z,98258.77
2018-10-17T10:14:53.533Z,98256.72
2018-10-17T10:15:57.176Z,98261.27
2018-10-17T10:17:05.757Z,98253.40
2018-10-17T10:18:13.648Z,98249.76
2018-10-17T10:19:17.795Z,98244.41
2018-10-17T10:20:20.481Z,98252.40
2018-10-17T10:21:23.261Z,98242.61
2018-10-17T10:22:28.630Z,98246.73
2018-10-17T10:23:34.455Z,98243.30
2018-10-17T10:24:37.427Z,98238.61
2018-10-17T10:25:40.850Z,98240.63
2018-10-17T10:26:50.441Z,98238.47
2018-10-17T10:27:53.621Z,98237.60
2018-10-17T10:29:00.242Z,98237.61
2018-10-17T10:30:04.750Z,98241.75
2018-10-17T10:43:10.067Z,98223.80
2018-10-17T10:44:13.322Z,98227.89
2018-10-17T10:45:16.176Z,98224.28
2018-10-17T10:46:18.972Z,98226.34
2018-10-17T10:47:24.009Z,98224.06
2018-10-17T10:48:27.546Z,98219.98
2018-10-17T10:49:31.449Z,98227.47
2018-10-17T10:50:34.488Z,98219.73
2018-10-17T10:51:38.405Z,98226.27
2018-10-17T10:52:41.484Z,98219.25
2018-10-17T10:53:48.045Z,98219.49
2018-10-17T10:54:51.581Z,98216.22
2018-10-17T10:55:54.447Z,98216.84
2018-10-17T10:56:57.167Z,98217.27
2018-10-17T10:58:01.702Z,98219.33
2018-10-17T10:59:06.628Z,98217.45
2018-10-17T11:00:10.975Z,98218.55
2018-10-17T11:01:14.100Z,98215.05
2018-10-17T11:02:16.966Z,98213.86
2018-10-17T11:03:20.550Z,98209.37
2018-10-17T11:04:24.487Z,98204.95
2018-10-17T11:05:28.445Z,98209.97
2018-10-17T11:06:32.822Z,98206.48
2018-10-17T11:07:36.000Z,98206.98
2018-10-17T11:08:39.676Z,98205.38
2018-10-17T11:09:42.511Z,98209.70
2018-10-17T11:10:45.190Z,98203.14
2018-10-17T11:11:47.966Z,98207.00
2018-10-17T11:12:51.435Z,98203.20
2018-10-17T11:13:56.172Z,98207.94
2018-10-17T11:15:01.829Z,98211.02
2018-10-17T11:16:04.647Z,98210.22
2018-10-17T11:17:10.351Z,98208.88
2018-10-17T11:18:13.786Z,98206.85
2018-10-17T11:19:17.088Z,98211.52
2018-10-17T11:20:21.257Z,98207.42
2018-10-17T11:21:23.931Z,98208.45
2018-10-17T11:22:27.586Z,98206.45
2018-10-17T11:24:39.726Z,98202.87
2018-10-17T11:25:43.224Z,98198.11
2018-10-17T11:26:48.805Z,98199.33
2018-10-17T11:27:52.357Z,98206.35
2018-10-17T11:28:56.027Z,98205.02
2018-10-17T11:29:58.815Z,98189.44
2018-10-17T11:31:02.364Z,98197.28
2018-10-17T11:32:05.326Z,98196.55
2018-10-17T11:33:08.985Z,98194.66
2018-10-17T11:34:12.358Z,98199.11
2018-10-17T11:35:15.689Z,98201.20
2018-10-17T11:36:18.395Z,98193.27
2018-10-17T11:37:21.722Z,98196.29
2018-10-17T11:38:24.868Z,98187.61
2018-10-17T11:39:27.985Z,98184.72
2018-10-17T11:40:32.111Z,98193.19
2018-10-17T11:41:38.537Z,98186.22
2018-10-17T11:42:42.379Z,98182.52
2018-10-17T11:43:45.065Z,98180.22
2018-10-17T11:44:47.791Z,98183.45
2018-10-17T11:45:52.380Z,98180.75
2018-10-17T11:46:55.485Z,98186.72
2018-10-17T11:47:59.757Z,98182.42
2018-10-17T11:49:02.821Z,98184.89
2018-10-17T11:50:05.537Z,98180.11
2018-10-17T11:51:08.288Z,98176.93
2018-10-17T11:52:11.455Z,98179.66
2018-10-17T11:53:14.475Z,98177.36
2018-10-17T11:54:17.341Z,98176.59
2018-10-17T11:55:21.903Z,98172.77
2018-10-17T11:56:25.209Z,98171.44
2018-10-17T11:57:28.276Z,98168.38
2018-10-17T11:58:31.423Z,98172.67
2018-10-17T11:59:34.961Z,98168.99
2018-10-17T12:00:37.803Z,98165.80
2018-10-17T12:01:40.662Z,98159.52
2018-10-17T12:02:43.408Z,98158.61
2018-10-17T12:03:46.699Z,98161.14
2018-10-17T12:04:51.749Z,98163.51
2018-10-17T12:05:55.479Z,98155.30
2018-10-17T12:06:59.362Z,98164.12
2018-10-17T12:08:03.333Z,98162.64
2018-10-17T12:09:06.350Z,98167.42
2018-10-17T12:10:09.416Z,98160.77
2018-10-17T12:11:12.780Z,98162.19
2018-10-17T12:13:34.555Z,98163.14
2018-10-17T12:14:37.465Z,98157.69
2018-10-17T12:15:42.919Z,98158.08
2018-10-17T12:16:45.996Z,98150.94
2018-10-17T12:17:48.766Z,98155.97
2018-10-17T12:18:51.527Z,98152.22
2018-10-17T12:19:54.219Z,98152.03
2018-10-17T12:20:57.018Z,98151.91
2018-10-17T12:21:59.675Z,98148.98
2018-10-17T12:23:03.453Z,98151.02
2018-10-17T12:24:06.153Z,98147.25
2018-10-17T12:25:10.958Z,98151.44
2018-10-17T12:26:14.505Z,98140.80
2018-10-17T12:27:19.764Z,98145.06
2018-10-17T12:28:23.267Z,98146.61
2018-10-17T12:29:26.632Z,98147.80
2018-10-17T12:30:29.978Z,98142.85
2018-10-17T12:31:32.746Z,98142.23
2018-10-17T12:32:36.899Z,98140.05
2018-10-17T12:33:39.581Z,98138.98
2018-10-17T12:34:42.989Z,98145.33
2018-10-17T12:35:46.100Z,98139.58
2018-10-17T12:36:49.266Z,98139.88
2018-10-17T12:37:52.763Z,98135.69
2018-10-17T12:38:55.563Z,98136.91
2018-10-17T12:39:58.396Z,98137.81
2018-10-17T12:41:02.100Z,98145.59
2018-10-17T12:42:05.416Z,98134.81
2018-10-17T12:43:09.090Z,98136.97
2018-10-17T12:44:11.913Z,98133.33
2018-10-17T12:45:14.686Z,98137.52
2018-10-17T12:46:17.494Z,98133.64
2018-10-17T12:47:20.199Z,98125.41
2018-10-17T12:48:25.311Z,98125.87
2018-10-17T12:49:28.818Z,98123.59
2018-10-17T12:50:32.199Z,98127.61
2018-10-17T12:51:35.061Z,98122.52
2018-10-17T12:52:37.845Z,98126.83
2018-10-17T12:53:40.613Z,98125.94
2018-10-17T12:54:43.955Z,98129.00
2018-10-17T12:55:46.708Z,98128.59
2018-10-17T12:56:49.590Z,98123.31
2018-10-17T12:57:53.384Z,98127.75